Recluse, WY (82725)

6:22 AM MST on February 12, 2016 (GMT -0700)
APRSWXNET | | Change Station
CLOSE
Current Station
Personal Weather Station
Location: Weston, WY
Elevation: 4137 ft
Nearby Weather Stations

Elev 4137 ft 44.99 °N, 105.19 °W | Updated 28 minutes ago

Mostly Cloudy
Mostly Cloudy
29 °F
Feels Like 29 °F
N
3
Wind Variable Wind from South
Gusts 4.0 mph

Today
High -- | Low -- °F
--% Chance of Precip.
Yesterday
High -- | Low -- °F
Precip. -- in
Pressure 30.30 in
Visibility 0.2 miles
Clouds
Windchill 29 °F
Dew Point 28 °F
Humidity 96%
Rainfall in
Snow Depth Not available.
7:08 AM 5:26 PM
Waxing Crescent, 20% visible
SPECI KGCC 121305Z AUTO 06004KT 1/4SM FZFG VV002 M02/M03 A3030 RMK AO2 T10221028
Pressure 30.30 in
Visibility 0.2 miles
Clouds
Windchill 29 °F
Dew Point 28 °F
Humidity 96%
Rainfall in
Snow Depth Not available.
7:08 AM 5:26 PM
Waxing Crescent, 20% visible
SPECI KGCC 121305Z AUTO 06004KT 1/4SM FZFG VV002 M02/M03 A3030 RMK AO2 T10221028

10-Day Weather Forecast

Almanac

Astronomy

Feb. 12, 2016 Rise Set
Actual Time
Civil Twilight
Nautical Twilight
Astronomical Twilight
Moon
Length of Visible Light
Length of Day
Tomorrow will be .
, % of the Moon is Illuminated

Today's Extremes

State Highs State Lows

Community

WunderPhotos

Upload Photos

1,892,309 photos uploaded!

WunderBlog® & News

Nearby

Air Quality

  Air Quality AQ Index Pollutant
Not available.

Snow Depth

Station Depth Elevation

Earthquake Activity

City Distance Mag. Time & Date
Minimum magnitude displayed is 2.5.

Coastal Water Temperatures

Place Temperature

Stations

Nearby Weather Stations

Station Location Temp. Windchill Dew Point Humidity Wind Precip. Elev Updated Type
                   

Watches & Warnings

There are currently no watches in effect.